Time;durP1;ratioP1;P1;durP2;ratioP2;P2;SDS_P1;SDS_P2;PMS_P1;PMS_P2;Temp;Humidity;BMP_temperature;BMP_pressure;BME280_temperature;BME280_humidity;BME280_pressure;Samples;Min_cycle;Max_cycle;Signal;HPM_P1;HPM_P2
2022/11/01 00:01:57;;;;;;;18.48;11.00;;;;;;;12.44;100.00;100280.19;5064759;28;20193;-73
2022/11/01 00:04:24;;;;;;;14.07;11.75;;;;;;;12.47;100.00;100273.75;5062491;28;20203;-74
2022/11/01 00:06:52;;;;;;;15.20;11.80;;;;;;;12.47;100.00;100290.81;5059055;28;20585;-72
2022/11/01 00:09:19;;;;;;;15.80;12.50;;;;;;;12.22;100.00;100277.78;5056803;28;20640;-74
2022/11/01 00:11:46;;;;;;;16.45;13.45;;;;;;;12.32;100.00;100283.53;5060109;28;20640;-73
2022/11/01 00:14:14;;;;;;;15.48;12.13;;;;;;;12.39;100.00;100287.69;5056859;28;20217;-73
2022/11/01 00:16:40;;;;;;;20.77;12.80;;;;;;;12.42;100.00;100292.03;5057391;28;20296;-73
2022/11/01 00:19:07;;;;;;;13.40;11.65;;;;;;;12.38;100.00;100293.16;5056987;28;20290;-74
2022/11/01 00:21:34;;;;;;;18.13;11.80;;;;;;;12.39;100.00;100290.38;5057851;28;20201;-72
2022/11/01 00:24:02;;;;;;;20.88;11.73;;;;;;;12.37;100.00;100288.69;5060542;28;20201;-74
2022/11/01 00:26:28;;;;;;;17.25;12.32;;;;;;;12.36;100.00;100292.38;5059673;28;20292;-73
2022/11/01 00:28:55;;;;;;;17.08;11.90;;;;;;;12.30;100.00;100285.44;5060743;28;20207;-73
2022/11/01 00:31:22;;;;;;;13.05;11.70;;;;;;;12.28;100.00;100282.84;5060021;28;20563;-74
2022/11/01 00:33:48;;;;;;;18.77;12.20;;;;;;;12.31;100.00;100288.09;5067955;28;20200;-73
2022/11/01 00:36:15;;;;;;;17.48;12.13;;;;;;;12.27;100.00;100291.03;5063991;28;20221;-73
2022/11/01 00:38:42;;;;;;;17.48;11.50;;;;;;;12.29;100.00;100289.13;5060688;28;20301;-73
2022/11/01 00:41:10;;;;;;;20.95;12.55;;;;;;;12.33;100.00;100298.81;5058012;28;20216;-74
2022/11/01 00:43:36;;;;;;;14.27;12.25;;;;;;;12.33;100.00;100292.53;5058768;28;20203;-74
2022/11/01 00:46:04;;;;;;;22.45;11.57;;;;;;;12.34;100.00;100295.13;5057935;28;20556;-74
2022/11/01 00:48:31;;;;;;;20.17;12.57;;;;;;;12.26;100.00;100287.47;5057835;28;20199;-73
2022/11/01 00:50:57;;;;;;;16.98;12.02;;;;;;;12.30;100.00;100289.06;5060273;28;20197;-72
2022/11/01 00:53:24;;;;;;;19.20;13.30;;;;;;;12.35;100.00;100290.63;5058243;28;20201;-73
2022/11/01 00:55:52;;;;;;;13.75;11.13;;;;;;;12.27;100.00;100283.78;5057720;28;20574;-72
2022/11/01 00:58:20;;;;;;;16.80;12.05;;;;;;;12.22;100.00;100291.28;5055342;22;20234;-74
2022/11/01 01:00:47;;;;;;;18.55;12.65;;;;;;;12.25;100.00;100285.69;5036488;28;20198;-74
2022/11/01 01:03:14;;;;;;;18.00;12.60;;;;;;;12.25;100.00;100284.84;5035947;28;20200;-75
2022/11/01 01:05:40;;;;;;;15.70;11.90;;;;;;;12.27;100.00;100286.50;5036336;28;20198;-74
2022/11/01 01:08:07;;;;;;;19.38;12.80;;;;;;;12.25;100.00;100271.34;5036613;28;20226;-75
2022/11/01 01:10:35;;;;;;;18.63;12.88;;;;;;;12.32;100.00;100270.03;5037227;28;20685;-75
2022/11/01 01:13:02;;;;;;;14.40;12.48;;;;;;;12.38;100.00;100264.31;5037198;28;20201;-74
2022/11/01 01:15:30;;;;;;;16.00;12.43;;;;;;;12.29;100.00;100254.88;5037286;28;20198;-73
2022/11/01 01:17:56;;;;;;;15.93;12.27;;;;;;;12.41;100.00;100247.06;5036777;28;20236;-74
2022/11/01 01:20:23;;;;;;;18.58;13.35;;;;;;;12.47;100.00;100241.34;5037561;28;20198;-73
2022/11/01 01:22:50;;;;;;;19.10;13.52;;;;;;;12.45;100.00;100232.44;5037813;28;20573;-73
2022/11/01 01:25:18;;;;;;;17.83;14.35;;;;;;;12.47;100.00;100225.13;5036988;28;20221;-75
2022/11/01 01:27:45;;;;;;;17.00;14.35;;;;;;;12.50;100.00;100230.34;5037115;28;20317;-73
2022/11/01 01:30:12;;;;;;;19.65;16.48;;;;;;;12.46;100.00;100226.09;5037034;28;20198;-74
2022/11/01 01:32:40;;;;;;;18.23;14.55;;;;;;;12.45;100.00;100233.31;5037405;28;20194;-74
2022/11/01 01:35:07;;;;;;;16.25;13.02;;;;;;;12.48;100.00;100226.84;5017745;28;20199;-75
2022/11/01 01:37:34;;;;;;;15.77;12.88;;;;;;;12.47;100.00;100231.38;5019691;28;20219;-74
2022/11/01 01:40:00;;;;;;;18.38;14.15;;;;;;;12.41;100.00;100220.06;5029679;28;20574;-75
2022/11/01 01:42:29;;;;;;;16.00;12.65;;;;;;;12.44;100.00;100222.59;5045333;28;20208;-75
2022/11/01 01:45:24;;;;;;;20.70;13.93;;;;;;;12.47;100.00;100231.38;5043617;28;20641;-74
2022/11/01 01:47:54;;;;;;;15.82;12.30;;;;;;;12.54;100.00;100233.75;5043828;28;20325;-74
2022/11/01 01:50:26;;;;;;;16.63;12.80;;;;;;;12.54;100.00;100234.63;5042656;28;20262;-74
2022/11/01 01:52:59;;;;;;;16.65;12.90;;;;;;;12.51;100.00;100237.50;5041952;28;20202;-74
2022/11/01 01:55:30;;;;;;;18.58;14.65;;;;;;;12.51;100.00;100237.50;5041031;28;20194;-74
2022/11/01 01:57:57;;;;;;;20.20;14.95;;;;;;;12.47;100.00;100226.00;5039951;28;20236;-75
2022/11/01 02:00:24;;;;;;;21.60;14.63;;;;;;;12.56;100.00;100226.44;5041475;28;20265;-75
2022/11/01 02:02:52;;;;;;;20.55;14.10;;;;;;;12.52;100.00;100232.00;5041031;28;20568;-75
2022/11/01 02:05:32;;;;;;;19.05;14.43;;;;;;;12.57;100.00;100231.75;5041024;28;20204;-75
2022/11/01 02:08:00;;;;;;;18.80;13.75;;;;;;;12.55;100.00;100214.78;5040880;28;20229;-73
2022/11/01 02:10:28;;;;;;;18.35;12.43;;;;;;;12.59;100.00;100223.56;5040698;28;20198;-74
2022/11/01 02:12:57;;;;;;;17.38;13.18;;;;;;;12.58;100.00;100220.00;5040934;28;20198;-75
2022/11/01 02:15:35;;;;;;;17.65;12.65;;;;;;;12.67;100.00;100218.59;5040198;28;20198;-74
2022/11/01 02:18:15;;;;;;;14.52;12.57;;;;;;;12.62;100.00;100218.88;5038138;28;20240;-75
2022/11/01 02:21:07;;;;;;;16.20;13.13;;;;;;;12.68;100.00;100218.50;5041713;28;20186;-74
2022/11/01 02:23:59;;;;;;;17.38;13.13;;;;;;;12.64;100.00;100211.53;5029209;28;20194;-74
2022/11/01 02:26:54;;;;;;;21.30;15.52;;;;;;;12.63;100.00;100206.22;5041989;28;20206;-74
2022/11/01 02:29:44;;;;;;;18.17;15.10;;;;;;;12.70;100.00;100216.56;5050810;28;20186;-73
2022/11/01 02:32:18;;;;;;;20.05;14.82;;;;;;;12.73;100.00;100215.56;5052396;28;20858;-73
2022/11/01 02:34:52;;;;;;;25.85;18.95;;;;;;;12.94;100.00;100219.72;5047122;28;20224;-76
2022/11/01 02:37:26;;;;;;;28.52;19.40;;;;;;;13.06;100.00;100218.13;5040743;28;20293;-76
2022/11/01 02:39:57;;;;;;;24.20;17.95;;;;;;;12.94;100.00;100213.44;5031188;28;20197;-75
2022/11/01 02:42:29;;;;;;;28.48;18.02;;;;;;;13.03;100.00;100218.31;5042963;28;20186;-75
2022/11/01 02:45:02;;;;;;;25.10;16.20;;;;;;;13.01;100.00;100212.13;5042985;28;20258;-73
2022/11/01 02:47:32;;;;;;;19.55;14.40;;;;;;;12.96;100.00;100216.03;5042681;28;20217;-74
2022/11/01 02:50:02;;;;;;;18.48;15.82;;;;;;;12.85;100.00;100222.09;5041328;28;20262;-74
2022/11/01 02:52:32;;;;;;;18.35;14.20;;;;;;;12.86;100.00;100207.59;5044247;28;20217;-74
2022/11/01 02:55:01;;;;;;;16.55;12.75;;;;;;;12.87;100.00;100212.91;5041318;28;20198;-74
2022/11/01 02:57:32;;;;;;;16.55;12.40;;;;;;;12.77;100.00;100213.53;5048886;28;20711;-73
2022/11/01 03:00:03;;;;;;;22.75;15.00;;;;;;;12.78;100.00;100209.88;5050585;28;20534;-74
2022/11/01 03:02:42;;;;;;;14.85;12.57;;;;;;;12.78;100.00;100215.28;5053517;28;20186;-72
2022/11/01 03:05:15;;;;;;;17.77;13.88;;;;;;;12.79;100.00;100215.19;5055079;28;20185;-75
2022/11/01 03:07:46;;;;;;;15.73;13.45;;;;;;;12.81;100.00;100210.56;5055076;28;20265;-72
2022/11/01 03:10:14;;;;;;;20.10;14.10;;;;;;;12.84;100.00;100210.38;5052975;28;20293;-73
2022/11/01 03:12:53;;;;;;;17.45;12.13;;;;;;;12.76;100.00;100220.78;5029186;28;20217;-73
2022/11/01 03:15:25;;;;;;;24.45;12.55;;;;;;;12.83;100.00;100226.69;5038652;28;20198;-73
2022/11/01 03:18:01;;;;;;;16.58;12.23;;;;;;;12.88;100.00;100236.28;5048983;28;20543;-74
2022/11/01 03:20:46;;;;;;;21.42;14.98;;;;;;;12.85;100.00;100249.97;5049206;28;20229;-74
2022/11/01 03:23:15;;;;;;;16.90;13.55;;;;;;;12.80;100.00;100254.78;5048057;28;20225;-73
2022/11/01 03:25:46;;;;;;;19.38;15.45;;;;;;;12.81;100.00;100261.03;5047011;28;20202;-73
2022/11/01 03:28:17;;;;;;;18.58;15.35;;;;;;;12.87;100.00;100261.56;5049611;28;20301;-73
2022/11/01 03:30:50;;;;;;;23.17;15.85;;;;;;;12.87;100.00;100263.41;5053137;28;20193;-73
2022/11/01 03:33:19;;;;;;;19.75;14.02;;;;;;;12.75;100.00;100262.25;5046669;28;20189;-73
2022/11/01 03:35:49;;;;;;;22.73;16.00;;;;;;;12.89;100.00;100273.16;5046185;28;20204;-73
2022/11/01 03:38:19;;;;;;;25.77;18.33;;;;;;;12.96;100.00;100267.38;5050933;28;20210;-73
2022/11/01 03:40:50;;;;;;;23.55;17.52;;;;;;;13.20;100.00;100262.41;5048989;28;20206;-74
2022/11/01 03:43:19;;;;;;;25.85;19.20;;;;;;;13.15;100.00;100268.09;5051000;28;20267;-74
2022/11/01 03:45:46;;;;;;;27.52;20.30;;;;;;;13.28;100.00;100268.28;5051767;28;20217;-73
2022/11/01 03:48:13;;;;;;;28.15;19.52;;;;;;;13.34;100.00;100263.38;5050010;28;20230;-73
2022/11/01 03:50:47;;;;;;;25.63;19.17;;;;;;;13.34;100.00;100248.97;5051036;28;20257;-73
2022/11/01 03:53:13;;;;;;;29.05;21.08;;;;;;;13.28;100.00;100252.06;5050176;28;20191;-74
2022/11/01 03:55:40;;;;;;;31.13;20.33;;;;;;;13.27;100.00;100264.69;5038197;28;20200;-75
2022/11/01 03:58:06;;;;;;;29.33;20.73;;;;;;;13.32;100.00;100262.59;5037414;28;20809;-74
2022/11/01 04:00:35;;;;;;;27.77;20.23;;;;;;;13.35;100.00;100267.81;5035777;28;20253;-74
2022/11/01 04:03:02;;;;;;;23.83;18.65;;;;;;;13.45;100.00;100262.72;5037510;28;20205;-74
2022/11/01 04:05:31;;;;;;;26.85;20.75;;;;;;;13.41;100.00;100266.59;5035981;28;20202;-74
2022/11/01 04:07:59;;;;;;;35.55;22.15;;;;;;;13.43;100.00;100272.78;5017657;28;20261;-73
2022/11/01 04:10:27;;;;;;;28.40;20.92;;;;;;;13.52;100.00;100268.63;5017665;28;20217;-75
2022/11/01 04:12:54;;;;;;;28.55;21.05;;;;;;;13.60;100.00;100271.78;5018263;28;20270;-74
2022/11/01 04:20:58;;;;;;;28.15;19.83;;;;;;;13.60;100.00;100279.03;5037122;28;20575;-74
2022/11/01 04:23:26;;;;;;;25.27;20.20;;;;;;;13.66;100.00;100268.72;5042673;28;20216;-74
2022/11/01 04:25:52;;;;;;;30.17;20.70;;;;;;;13.65;100.00;100269.66;5045123;28;20225;-74
2022/11/01 04:28:19;;;;;;;22.95;19.50;;;;;;;13.71;100.00;100279.25;5040836;28;20683;-75
2022/11/01 04:30:46;;;;;;;28.25;20.17;;;;;;;13.78;100.00;100280.63;5041036;28;20197;-74
2022/11/01 04:33:12;;;;;;;26.10;19.75;;;;;;;13.81;100.00;100283.13;5037184;28;20280;-74
2022/11/01 04:35:39;;;;;;;37.78;20.60;;;;;;;13.86;100.00;100272.00;5036032;28;20194;-74
2022/11/01 04:38:06;;;;;;;36.47;22.48;;;;;;;13.90;100.00;100277.16;5036892;28;20580;-73
2022/11/01 04:40:34;;;;;;;30.88;22.05;;;;;;;13.87;100.00;100274.63;5037506;28;20284;-73
2022/11/01 04:43:01;;;;;;;32.40;21.23;;;;;;;13.89;100.00;100269.16;5037458;28;20224;-74
2022/11/01 04:45:28;;;;;;;30.70;22.75;;;;;;;13.94;100.00;100264.31;5036655;28;20659;-73
2022/11/01 04:48:02;;;;;;;32.00;23.02;;;;;;;13.96;100.00;100273.22;5036484;28;20233;-74
2022/11/01 04:50:28;;;;;;;29.15;22.02;;;;;;;13.92;100.00;100277.94;5036885;28;20200;-75
2022/11/01 04:52:55;;;;;;;28.60;21.48;;;;;;;13.97;100.00;100286.66;5040564;28;20204;-74
2022/11/01 04:55:21;;;;;;;31.60;21.00;;;;;;;14.01;100.00;100291.88;5040785;28;20198;-77
2022/11/01 04:57:49;;;;;;;31.00;19.90;;;;;;;14.06;100.00;100279.78;5039222;28;20332;-73
2022/11/01 05:00:16;;;;;;;34.33;20.38;;;;;;;14.08;100.00;100290.53;5039430;28;20296;-74
2022/11/01 05:02:42;;;;;;;30.38;20.55;;;;;;;14.06;100.00;100285.19;5041673;28;20273;-74
2022/11/01 05:05:10;;;;;;;30.55;20.48;;;;;;;14.08;100.00;100285.13;5039942;28;20206;-75
2022/11/01 05:07:37;;;;;;;26.80;21.35;;;;;;;14.14;100.00;100293.72;5039050;28;20699;-74
2022/11/01 05:10:05;;;;;;;26.60;19.83;;;;;;;14.13;100.00;100288.41;5037120;28;20220;-76
2022/11/01 05:12:32;;;;;;;30.55;20.85;;;;;;;14.16;100.00;100294.50;5038791;28;20230;-73
2022/11/01 05:15:00;;;;;;;27.73;21.73;;;;;;;14.18;100.00;100299.84;5047740;28;20289;-73
2022/11/01 05:17:26;;;;;;;29.33;20.70;;;;;;;14.20;100.00;100284.38;5045107;28;20234;-74
2022/11/01 05:19:53;;;;;;;28.45;20.35;;;;;;;14.19;100.00;100283.47;5038917;28;20216;-75
2022/11/01 05:22:19;;;;;;;28.25;19.75;;;;;;;14.17;100.00;100292.66;5037799;28;20205;-74
2022/11/01 05:24:46;;;;;;;27.25;20.45;;;;;;;14.21;100.00;100298.78;5036785;28;20208;-73
2022/11/01 05:27:12;;;;;;;28.67;19.67;;;;;;;14.17;100.00;100303.50;5032690;28;20280;-74
2022/11/01 05:29:39;;;;;;;30.40;19.77;;;;;;;14.25;100.00;100305.75;5037954;28;20224;-75
2022/11/01 05:32:07;;;;;;;29.08;19.70;;;;;;;14.25;100.00;100301.19;5037604;28;20212;-75
2022/11/01 05:34:33;;;;;;;26.55;19.15;;;;;;;14.29;100.00;100293.72;5037719;28;20198;-75
2022/11/01 05:37:00;;;;;;;31.38;21.00;;;;;;;14.34;100.00;100316.00;5036877;28;20210;-74
2022/11/01 05:39:26;;;;;;;33.28;20.25;;;;;;;14.34;100.00;100313.31;5017613;28;20201;-73
2022/11/01 05:41:53;;;;;;;29.08;19.58;;;;;;;14.30;100.00;100323.44;5016605;28;20207;-74
2022/11/01 05:44:19;;;;;;;30.45;19.73;;;;;;;14.33;100.00;100338.63;5016601;28;20211;-76
2022/11/01 05:46:46;;;;;;;29.85;19.25;;;;;;;14.35;100.00;100332.16;5030020;28;20659;-74
2022/11/01 05:49:14;;;;;;;28.20;21.15;;;;;;;14.31;100.00;100333.34;5036559;28;20222;-76
2022/11/01 05:51:40;;;;;;;33.40;23.00;;;;;;;14.32;100.00;100336.91;5037557;28;20389;-74
2022/11/01 05:54:07;;;;;;;32.63;21.98;;;;;;;14.26;100.00;100330.00;5037403;28;20213;-76
2022/11/01 05:56:33;;;;;;;29.90;21.08;;;;;;;14.29;100.00;100334.38;5036375;28;20661;-76
2022/11/01 05:59:00;;;;;;;31.35;21.95;;;;;;;14.27;100.00;100336.28;5035160;28;20572;-75
2022/11/01 06:01:26;;;;;;;35.45;21.98;;;;;;;14.31;100.00;100336.03;5036611;28;20202;-74
2022/11/01 06:03:53;;;;;;;28.42;21.77;;;;;;;14.25;100.00;100327.41;5036553;28;20289;-75
2022/11/01 06:06:21;;;;;;;33.42;22.27;;;;;;;14.31;100.00;100325.22;5036718;28;20656;-75
2022/11/01 06:08:47;;;;;;;35.05;23.42;;;;;;;14.35;100.00;100334.00;5033928;28;20229;-74
2022/11/01 06:11:14;;;;;;;29.55;21.50;;;;;;;14.34;100.00;100349.38;5035855;28;20198;-74
2022/11/01 06:13:41;;;;;;;31.67;22.13;;;;;;;14.28;100.00;100354.31;5035457;28;20202;-72
2022/11/01 06:16:08;;;;;;;32.55;24.38;;;;;;;14.27;100.00;100356.16;5035810;28;20197;-73
2022/11/01 06:18:35;;;;;;;32.95;22.10;;;;;;;14.34;100.00;100353.94;5035637;28;20218;-73
2022/11/01 06:21:02;;;;;;;36.05;24.75;;;;;;;14.33;100.00;100361.16;5035108;28;20210;-75
2022/11/01 06:23:30;;;;;;;40.72;24.35;;;;;;;14.34;100.00;100362.06;5032963;28;20202;-73
2022/11/01 06:26:00;;;;;;;35.85;22.85;;;;;;;14.36;100.00;100373.69;5035950;28;20208;-73
2022/11/01 06:28:27;;;;;;;35.90;24.45;;;;;;;14.35;100.00;100372.78;5035706;28;20695;-75
2022/11/01 06:30:54;;;;;;;30.13;25.08;;;;;;;14.39;100.00;100368.06;5035591;28;20210;-76
2022/11/01 06:33:20;;;;;;;32.10;23.98;;;;;;;14.39;100.00;100365.34;5036297;28;20213;-76
2022/11/01 06:35:47;;;;;;;32.90;23.10;;;;;;;14.37;100.00;100365.44;5035994;28;20576;-74
2022/11/01 06:38:13;;;;;;;35.72;24.20;;;;;;;14.38;100.00;100369.91;5035934;28;20214;-75
2022/11/01 06:40:41;;;;;;;35.75;23.60;;;;;;;14.34;100.00;100368.34;5038069;28;20638;-73
2022/11/01 06:43:09;;;;;;;31.80;22.52;;;;;;;14.38;100.00;100374.44;5035996;28;20212;-74
2022/11/01 06:45:36;;;;;;;33.53;22.48;;;;;;;14.41;100.00;100378.81;5036419;28;20244;-75
2022/11/01 06:48:03;;;;;;;37.05;24.15;;;;;;;14.38;100.00;100378.03;5035779;28;20226;-73
2022/11/01 06:50:29;;;;;;;34.25;23.55;;;;;;;14.39;100.00;100368.94;5035480;28;20583;-73
2022/11/01 06:52:57;;;;;;;33.17;23.08;;;;;;;14.36;100.00;100385.38;5035502;28;20586;-74
2022/11/01 06:55:23;;;;;;;29.98;21.65;;;;;;;14.38;100.00;100393.41;5035880;28;20206;-74
2022/11/01 06:57:55;;;;;;;33.25;21.45;;;;;;;14.35;100.00;100399.00;5049084;22;20236;-76
2022/11/01 07:00:21;;;;;;;34.05;23.63;;;;;;;14.41;100.00;100392.38;5035181;28;20220;-79
2022/11/01 07:02:48;;;;;;;37.30;23.33;;;;;;;14.41;100.00;100405.91;5036498;28;20683;-77
2022/11/01 07:05:15;;;;;;;29.98;20.75;;;;;;;14.44;100.00;100408.41;5039642;28;20301;-76
2022/11/01 07:07:41;;;;;;;29.38;20.65;;;;;;;14.39;100.00;100417.69;5045109;28;20568;-75
2022/11/01 07:10:09;;;;;;;34.95;21.88;;;;;;;14.45;100.00;100415.56;5043507;28;20248;-76
2022/11/01 07:12:35;;;;;;;31.20;21.45;;;;;;;14.46;100.00;100406.50;5042590;28;20202;-75
2022/11/01 07:15:04;;;;;;;32.45;21.77;;;;;;;14.49;100.00;100417.13;5045471;28;20201;-76
2022/11/01 07:17:31;;;;;;;38.05;21.75;;;;;;;14.53;100.00;100424.13;5043292;28;20221;-77
2022/11/01 07:19:57;;;;;;;27.05;20.27;;;;;;;14.47;100.00;100429.91;5040139;28;20198;-79
2022/11/01 07:22:23;;;;;;;31.98;21.10;;;;;;;14.52;100.00;100438.66;5041647;28;20197;-77
2022/11/01 07:24:50;;;;;;;28.02;19.63;;;;;;;14.60;100.00;100445.34;5038081;28;20198;-76
2022/11/01 07:27:17;;;;;;;25.95;19.70;;;;;;;14.65;100.00;100441.47;5038688;28;20765;-79
2022/11/01 07:29:43;;;;;;;25.38;18.63;;;;;;;14.62;100.00;100439.84;5045050;28;20230;-77
2022/11/01 07:32:11;;;;;;;29.13;19.85;;;;;;;14.76;100.00;100441.69;5041005;28;20273;-77
2022/11/01 07:34:38;;;;;;;28.58;18.10;;;;;;;14.86;100.00;100451.00;5037572;28;20288;-77
2022/11/01 07:37:04;;;;;;;25.77;18.17;;;;;;;14.85;100.00;100445.69;5035507;28;20206;-78
2022/11/01 07:39:31;;;;;;;21.27;17.00;;;;;;;14.82;100.00;100462.16;5034515;28;20197;-75
2022/11/01 07:41:58;;;;;;;23.13;17.42;;;;;;;14.80;100.00;100460.38;5034791;28;20213;-77
2022/11/01 07:44:24;;;;;;;24.73;16.15;;;;;;;14.86;100.00;100452.84;5034015;28;20213;-76
2022/11/01 07:46:51;;;;;;;24.38;17.10;;;;;;;14.85;100.00;100462.81;5039161;28;20206;-78
2022/11/01 07:49:21;;;;;;;19.48;16.52;;;;;;;14.85;100.00;100468.22;5034548;28;20226;-76
2022/11/01 07:51:48;;;;;;;18.88;14.75;;;;;;;15.02;100.00;100469.91;5034485;28;20190;-76
2022/11/01 07:54:15;;;;;;;20.52;15.68;;;;;;;14.97;100.00;100475.63;5035034;28;20206;-76
2022/11/01 07:56:41;;;;;;;19.63;14.77;;;;;;;14.98;100.00;100485.47;5034003;28;20687;-76
2022/11/01 07:59:08;;;;;;;19.05;15.05;;;;;;;15.04;100.00;100481.53;5033581;28;20222;-75
2022/11/01 08:01:35;;;;;;;20.45;15.38;;;;;;;15.18;100.00;100500.50;5035881;28;20202;-75
2022/11/01 08:04:02;;;;;;;19.98;14.88;;;;;;;15.22;100.00;100495.78;5034647;28;20671;-77
2022/11/01 08:06:29;;;;;;;21.13;14.77;;;;;;;15.31;100.00;100497.00;5034411;28;20293;-76
2022/11/01 08:08:56;;;;;;;17.60;14.63;;;;;;;15.37;100.00;100504.78;5033784;28;20225;-77
2022/11/01 08:11:23;;;;;;;19.88;12.90;;;;;;;15.33;100.00;100501.41;5034167;28;20236;-75
2022/11/01 08:13:49;;;;;;;18.67;13.70;;;;;;;15.38;100.00;100503.81;5034244;28;20580;-76
2022/11/01 08:16:17;;;;;;;16.95;13.10;;;;;;;15.34;100.00;100507.69;5034008;28;20202;-76
2022/11/01 08:18:43;;;;;;;16.52;13.38;;;;;;;15.42;100.00;100513.47;5033800;28;20218;-77
2022/11/01 08:21:11;;;;;;;19.65;13.60;;;;;;;15.50;100.00;100515.72;5033578;28;20443;-76
2022/11/01 08:23:39;;;;;;;15.55;12.07;;;;;;;15.51;100.00;100531.03;5033942;28;20658;-75
2022/11/01 08:26:05;;;;;;;18.60;12.70;;;;;;;15.54;100.00;100537.16;5034360;28;20288;-77
2022/11/01 08:28:32;;;;;;;15.63;12.10;;;;;;;15.68;100.00;100538.09;5033028;28;20320;-76
2022/11/01 08:30:58;;;;;;;15.55;11.40;;;;;;;15.66;100.00;100540.91;5034078;28;20209;-77
2022/11/01 08:33:25;;;;;;;14.02;11.45;;;;;;;15.77;100.00;100537.53;5049975;28;20305;-79
2022/11/01 08:35:51;;;;;;;16.55;11.38;;;;;;;15.88;100.00;100550.44;5039326;28;20198;-77
2022/11/01 08:38:18;;;;;;;14.45;11.13;;;;;;;15.95;100.00;100558.06;5055999;28;20241;-77
2022/11/01 08:40:46;;;;;;;13.13;10.60;;;;;;;15.82;100.00;100552.53;5056495;28;20261;-79
2022/11/01 08:43:13;;;;;;;14.77;11.32;;;;;;;15.92;100.00;100558.28;5050854;28;20223;-77
2022/11/01 08:45:40;;;;;;;15.32;10.85;;;;;;;15.90;100.00;100568.38;5033186;28;20289;-76
2022/11/01 08:48:06;;;;;;;16.08;11.32;;;;;;;15.71;100.00;100567.78;5032933;28;20222;-77
2022/11/01 08:50:35;;;;;;;12.23;9.85;;;;;;;15.84;100.00;100582.31;5033365;28;20208;-75
2022/11/01 08:53:04;;;;;;;11.90;9.90;;;;;;;15.77;100.00;100581.84;5033452;28;20198;-79
2022/11/01 08:55:31;;;;;;;13.45;10.20;;;;;;;15.87;100.00;100587.56;5036070;28;20204;-76
2022/11/01 08:57:59;;;;;;;13.77;9.38;;;;;;;15.81;100.00;100582.53;5035098;28;20237;-77
2022/11/01 09:00:26;;;;;;;13.10;9.68;;;;;;;15.89;100.00;100584.75;5036254;28;20206;-76
2022/11/01 09:02:53;;;;;;;13.85;10.57;;;;;;;15.84;100.00;100588.63;5033035;28;20220;-76
2022/11/01 09:05:20;;;;;;;12.40;9.88;;;;;;;15.99;100.00;100591.34;5032803;28;20202;-75
2022/11/01 09:07:47;;;;;;;14.07;9.20;;;;;;;15.99;100.00;100592.22;5032613;28;20225;-76
2022/11/01 09:10:15;;;;;;;14.07;9.95;;;;;;;15.92;100.00;100598.13;5032580;28;20316;-77
2022/11/01 09:12:42;;;;;;;12.30;9.05;;;;;;;15.94;100.00;100597.06;5032545;28;20256;-78
2022/11/01 09:15:10;;;;;;;11.38;9.35;;;;;;;15.78;100.00;100602.63;5033846;28;20204;-77
2022/11/01 09:17:37;;;;;;;17.48;9.25;;;;;;;15.74;100.00;100602.91;5033960;28;20218;-76
2022/11/01 09:20:04;;;;;;;11.38;9.00;;;;;;;15.76;100.00;100604.56;5033175;28;20204;-76
2022/11/01 09:22:30;;;;;;;11.52;8.30;;;;;;;15.88;100.00;100607.47;5033149;28;20208;-77
2022/11/01 09:24:57;;;;;;;14.95;8.60;;;;;;;16.13;100.00;100598.59;5042654;28;20438;-75
2022/11/01 09:27:24;;;;;;;11.05;7.72;;;;;;;16.51;100.00;100606.03;5038591;28;20308;-76
2022/11/01 09:29:50;;;;;;;12.32;8.55;;;;;;;16.32;100.00;100607.25;5036729;28;20230;-75
2022/11/01 09:32:20;;;;;;;14.52;7.85;;;;;;;16.25;100.00;100608.63;5038233;28;20197;-74
2022/11/01 09:34:47;;;;;;;11.93;7.95;;;;;;;16.24;100.00;100610.50;5035472;28;20214;-76
2022/11/01 09:37:14;;;;;;;8.55;6.90;;;;;;;16.70;100.00;100611.13;5033758;28;20209;-77
2022/11/01 09:39:41;;;;;;;8.48;6.78;;;;;;;17.03;100.00;100586.22;5034215;28;20572;-74
2022/11/01 09:42:15;;;;;;;16.80;7.68;;;;;;;17.40;100.00;100589.94;5032456;28;20206;-74
2022/11/01 09:44:44;;;;;;;8.25;6.40;;;;;;;17.63;100.00;100579.25;5032638;28;20643;-76
2022/11/01 09:47:15;;;;;;;7.95;5.60;;;;;;;17.85;100.00;100564.97;5032171;28;20690;-77
2022/11/01 09:49:47;;;;;;;9.45;4.75;;;;;;;18.20;100.00;100565.06;5032165;28;20225;-76
2022/11/01 09:52:20;;;;;;;5.85;4.47;;;;;;;18.43;100.00;100568.81;5032764;28;20277;-77
2022/11/01 09:54:47;;;;;;;4.37;3.97;;;;;;;17.84;100.00;100569.56;5032474;28;20186;-76
2022/11/01 09:57:20;;;;;;;7.68;4.20;;;;;;;17.60;100.00;100574.91;5032061;28;20428;-77
2022/11/01 09:59:59;;;;;;;6.70;4.20;;;;;;;17.70;100.00;100581.44;5039327;28;20194;-73
2022/11/01 10:02:53;;;;;;;6.20;4.10;;;;;;;17.86;100.00;100572.16;5037183;28;20205;-77
2022/11/01 10:05:35;;;;;;;8.55;4.10;;;;;;;18.49;100.00;100583.84;5040246;28;20197;-75
2022/11/01 10:08:11;;;;;;;9.25;4.53;;;;;;;18.61;100.00;100587.47;5039613;28;20232;-78
2022/11/01 10:10:43;;;;;;;5.70;3.60;;;;;;;18.49;100.00;100583.84;5037441;28;20206;-76
2022/11/01 10:13:29;;;;;;;5.53;3.50;;;;;;;18.30;100.00;100587.09;5036283;28;20421;-76
2022/11/01 10:16:04;;;;;;;3.90;2.73;;;;;;;18.79;100.00;100591.59;5037724;28;20436;-76
2022/11/01 10:18:32;;;;;;;5.10;2.50;;;;;;;19.21;100.00;100582.91;5038423;28;20472;-76
2022/11/01 10:21:04;;;;;;;5.03;2.30;;;;;;;19.11;100.00;100582.75;5039045;28;20436;-76
2022/11/01 10:23:42;;;;;;;4.87;2.33;;;;;;;19.55;100.00;100581.94;5037372;28;20932;-76
2022/11/01 10:26:14;;;;;;;4.43;2.40;;;;;;;20.56;100.00;100591.06;5036010;28;20431;-78
2022/11/01 10:28:50;;;;;;;6.80;4.13;;;;;;;20.60;100.00;100592.59;5035591;28;20476;-77
2022/11/01 10:31:22;;;;;;;8.10;2.50;;;;;;;20.55;100.00;100586.56;5036628;28;20421;-77
2022/11/01 10:33:55;;;;;;;4.27;2.63;;;;;;;20.81;100.00;100587.16;5049894;28;20566;-76
2022/11/01 10:36:29;;;;;;;5.87;2.77;;;;;;;21.50;98.39;100599.47;5044746;28;20429;-75
2022/11/01 10:39:01;;;;;;;4.97;2.37;;;;;;;21.98;91.19;100593.34;5041168;28;20491;-77
2022/11/01 10:41:35;;;;;;;3.30;1.90;;;;;;;22.20;77.86;100587.66;5036047;28;20914;-76
2022/11/01 10:44:05;;;;;;;3.30;1.70;;;;;;;21.84;73.56;100597.34;5051435;28;20485;-76
2022/11/01 10:46:37;;;;;;;2.13;1.20;;;;;;;21.23;72.95;100592.63;5051136;28;20445;-76
2022/11/01 10:49:06;;;;;;;2.40;1.33;;;;;;;21.28;67.48;100587.66;5054868;28;20571;-75
2022/11/01 10:51:36;;;;;;;4.87;1.57;;;;;;;21.36;66.79;100585.09;5042860;28;20449;-76
2022/11/01 10:54:05;;;;;;;3.50;1.40;;;;;;;21.05;64.80;100595.09;5045055;28;20437;-78
2022/11/01 10:56:36;;;;;;;3.60;1.20;;;;;;;21.20;67.10;100585.56;5043226;28;20444;-76
2022/11/01 10:59:07;;;;;;;4.23;1.33;;;;;;;21.38;61.98;100588.56;5043605;28;20479;-75
2022/11/01 11:01:41;;;;;;;2.67;1.10;;;;;;;21.58;60.99;100591.44;5044498;28;20421;-77
2022/11/01 11:04:11;;;;;;;2.37;1.13;;;;;;;21.88;61.67;100595.19;5040659;28;20452;-77
2022/11/01 11:06:41;;;;;;;3.73;1.20;;;;;;;22.16;61.26;100593.56;5035752;28;20457;-77
2022/11/01 11:09:18;;;;;;;3.53;1.13;;;;;;;21.91;63.77;100598.53;5035625;28;20484;-76
2022/11/01 11:11:47;;;;;;;4.30;1.20;;;;;;;21.82;61.81;100592.00;5034499;28;21004;-77
2022/11/01 11:14:15;;;;;;;2.30;1.40;;;;;;;21.47;64.30;100605.22;5034981;28;20809;-77
2022/11/01 11:16:45;;;;;;;2.57;1.03;;;;;;;22.38;58.75;100612.56;5035033;28;20539;-78
2022/11/01 11:19:18;;;;;;;2.20;1.03;;;;;;;22.51;55.53;100606.81;5036336;28;20631;-77